Fort Hope, Canada
Current Conditions -  °F | °C
As of 4:00 PM on Saturday 22 Nov 2014 (Local Time) from CYLH Reporting Station
Broken Clouds Broken Clouds  
Wind Chill:   Ceiling: 19000
Heat Index: 12°   Visibility: 9mi
Dew Point:   Wind: 5mph
Humidity: 85%   Direction: 330°NNW
Pressure: 29.66"   Gusts: NA
Location:  51.55°N, 87.98°W
Report Text: CYLH 222100Z AUTO 33004KT 9SM BKN190 M11/M13 A2966 RMK SLP065
Loading
Personal Weather Stations






























Interactive Weather Map New forecast layout! Learn more

10-Day Weather Forecast

Advertisements
Track Severe Weather on mobile